createdAt,value
2018-02-05T00:00:06.306Z,33.47
2018-02-05T00:02:35.417Z,38.60
2018-02-05T00:05:04.711Z,35.60
2018-02-05T00:07:32.312Z,34.90
2018-02-05T00:10:03.832Z,35.50
2018-02-05T00:12:31.833Z,36.53
2018-02-05T00:14:59.620Z,33.40
2018-02-05T00:17:29.480Z,39.40
2018-02-05T00:19:57.808Z,32.83
2018-02-05T00:22:25.419Z,37.27
2018-02-05T00:24:57.457Z,36.43
2018-02-05T00:27:28.960Z,41.77
2018-02-05T00:29:56.573Z,34.93
2018-02-05T00:32:24.911Z,34.57
2018-02-05T00:34:53.108Z,36.30
2018-02-05T00:37:22.061Z,36.27
2018-02-05T00:39:49.725Z,38.00
2018-02-05T00:42:18.089Z,35.87
2018-02-05T00:44:48.452Z,36.93
2018-02-05T00:47:20.454Z,33.60
2018-02-05T00:49:48.039Z,37.30
2018-02-05T00:52:20.590Z,34.87
2018-02-05T00:54:48.739Z,39.37
2018-02-05T00:57:16.648Z,40.03
2018-02-05T00:59:45.789Z,44.57
2018-02-05T01:02:15.189Z,43.00
2018-02-05T01:04:43.505Z,37.40
2018-02-05T01:07:14.910Z,36.10
2018-02-05T01:09:43.435Z,39.53
2018-02-05T01:12:11.110Z,45.13
2018-02-05T01:14:40.203Z,45.03
2018-02-05T01:17:07.831Z,39.60
2018-02-05T01:19:35.368Z,32.03
2018-02-05T01:22:04.504Z,39.77
2018-02-05T01:24:33.284Z,37.53
2018-02-05T01:27:00.882Z,34.13
2018-02-05T01:29:28.472Z,40.40
2018-02-05T01:31:59.464Z,36.00
2018-02-05T01:34:27.011Z,41.37
2018-02-05T01:36:54.632Z,38.07
2018-02-05T01:39:25.054Z,39.97
2018-02-05T01:41:53.587Z,38.03
2018-02-05T01:44:25.955Z,40.60
2018-02-05T01:46:54.544Z,35.77
2018-02-05T01:49:22.789Z,35.53
2018-02-05T01:51:51.319Z,35.67
2018-02-05T01:54:19.789Z,33.53
2018-02-05T01:56:48.168Z,34.90
2018-02-05T01:59:15.723Z,35.17
2018-02-05T02:01:44.893Z,41.67
2018-02-05T02:04:13.251Z,37.37
2018-02-05T02:06:44.544Z,34.80
2018-02-05T02:09:12.122Z,37.27
2018-02-05T02:11:39.704Z,39.13
2018-02-05T02:14:09.070Z,32.20
2018-02-05T02:16:37.547Z,32.13
2018-02-05T02:19:05.087Z,33.87
2018-02-05T02:21:34.068Z,34.37
2018-02-05T02:24:01.621Z,34.47
2018-02-05T02:26:29.390Z,28.00
2018-02-05T02:28:56.955Z,36.47
2018-02-05T02:31:24.576Z,36.83
2018-02-05T02:33:53.365Z,31.77
2018-02-05T02:36:21.044Z,30.23
2018-02-05T02:38:49.808Z,32.37
2018-02-05T02:41:17.537Z,36.03
2018-02-05T02:43:48.372Z,36.80
2018-02-05T02:46:19.120Z,32.40
2018-02-05T02:48:47.678Z,37.20
2018-02-05T02:51:15.671Z,35.37
2018-02-05T02:53:45.430Z,36.80
2018-02-05T02:56:14.344Z,34.23
2018-02-05T02:58:43.948Z,37.40
2018-02-05T03:01:15.291Z,37.73
2018-02-05T03:03:45.418Z,39.47
2018-02-05T03:06:14.355Z,41.30
2018-02-05T03:08:46.082Z,38.40
2018-02-05T03:11:15.493Z,36.73
2018-02-05T03:13:44.962Z,46.43
2018-02-05T03:16:14.731Z,41.93
2018-02-05T03:18:42.490Z,40.57
2018-02-05T03:21:11.981Z,43.87
2018-02-05T03:23:39.732Z,42.13
2018-02-05T03:26:10.237Z,51.33
2018-02-05T03:28:42.670Z,67.13
2018-02-05T03:31:11.335Z,52.63
2018-02-05T03:33:38.975Z,53.13
2018-02-05T03:36:07.957Z,56.20
2018-02-05T03:38:36.716Z,59.63
2018-02-05T03:41:04.316Z,67.63
2018-02-05T03:43:32.004Z,64.23
2018-02-05T03:46:01.658Z,102.40
2018-02-05T03:48:30.592Z,78.77
2018-02-05T03:50:59.751Z,82.07
2018-02-05T03:53:27.715Z,62.30
2018-02-05T03:55:57.605Z,74.97
2018-02-05T03:58:26.418Z,125.17
2018-02-05T04:00:57.784Z,64.93
2018-02-05T04:03:27.645Z,80.43
2018-02-05T04:05:57.542Z,142.53
2018-02-05T04:08:25.681Z,61.07
2018-02-05T04:10:57.286Z,48.97
2018-02-05T04:13:25.375Z,54.53
2018-02-05T04:15:53.300Z,87.30
2018-02-05T04:18:22.484Z,73.60
2018-02-05T04:20:51.719Z,78.60
2018-02-05T04:23:20.561Z,56.80
2018-02-05T04:25:51.604Z,64.83
2018-02-05T04:28:20.638Z,53.67
2018-02-05T04:30:48.688Z,59.17
2018-02-05T04:33:16.607Z,86.30
2018-02-05T04:35:44.774Z,53.67
2018-02-05T04:38:16.223Z,57.17
2018-02-05T04:40:47.028Z,49.43
2018-02-05T04:43:17.354Z,50.00
2018-02-05T04:45:46.639Z,51.67
2018-02-05T04:48:14.797Z,50.87
2018-02-05T04:50:43.572Z,53.87
2018-02-05T04:53:14.645Z,47.20
2018-02-05T04:55:43.402Z,46.47
2018-02-05T04:58:12.817Z,47.77
2018-02-05T05:00:41.123Z,53.67
2018-02-05T05:03:10.447Z,50.70
2018-02-05T05:05:38.665Z,57.43
2018-02-05T05:08:07.256Z,43.67
2018-02-05T05:10:35.655Z,43.63
2018-02-05T05:13:08.609Z,55.70
2018-02-05T05:15:39.657Z,44.57
2018-02-05T05:18:08.264Z,98.43
2018-02-05T05:20:37.011Z,42.07
2018-02-05T05:23:05.599Z,67.83
2018-02-05T05:25:35.419Z,60.60
2018-02-05T05:28:04.225Z,77.27
2018-02-05T05:30:32.633Z,75.10
2018-02-05T05:35:39.027Z,70.00
2018-02-05T05:38:13.318Z,54.37
2018-02-05T05:40:42.358Z,70.03
2018-02-05T05:43:13.834Z,55.70
2018-02-05T05:45:41.689Z,48.00
2018-02-05T05:48:11.068Z,48.80
2018-02-05T05:50:40.312Z,45.40
2018-02-05T05:53:08.906Z,44.37
2018-02-05T05:55:37.092Z,43.87
2018-02-05T05:58:08.317Z,48.03
2018-02-05T06:00:38.689Z,54.03
2018-02-05T06:03:09.061Z,49.73
2018-02-05T06:05:37.706Z,52.70
2018-02-05T06:08:08.079Z,50.37
2018-02-05T06:10:36.775Z,50.33
2018-02-05T06:13:08.088Z,49.60
2018-02-05T06:15:36.377Z,50.00
2018-02-05T06:18:05.554Z,50.67
2018-02-05T06:20:34.577Z,49.87
2018-02-05T06:23:02.177Z,49.13
2018-02-05T06:25:30.344Z,45.67
2018-02-05T06:27:58.805Z,48.40
2018-02-05T06:30:26.426Z,51.03
2018-02-05T06:32:53.977Z,49.90
2018-02-05T06:35:22.878Z,54.10
2018-02-05T06:37:50.448Z,42.40
2018-02-05T06:40:18.016Z,41.93
2018-02-05T06:42:46.742Z,48.63
2018-02-05T06:45:16.108Z,50.57
2018-02-05T06:47:44.662Z,46.37
2018-02-05T06:53:23.593Z,68.90
2018-02-05T06:55:52.514Z,54.63
2018-02-05T06:58:21.059Z,58.90
2018-02-05T07:00:50.264Z,53.47
2018-02-05T07:03:19.928Z,51.63
2018-02-05T07:05:48.169Z,45.37
2018-02-05T07:08:30.196Z,51.10
2018-02-05T07:10:58.088Z,47.47
2018-02-05T07:13:25.717Z,45.57
2018-02-05T07:15:53.260Z,41.17
2018-02-05T07:18:21.296Z,40.90
2018-02-05T07:20:50.187Z,45.10
2018-02-05T07:23:18.798Z,47.87
2018-02-05T07:28:21.157Z,48.63
2018-02-05T07:30:49.643Z,51.50
2018-02-05T07:33:18.505Z,45.67
2018-02-05T07:35:46.807Z,50.87
2018-02-05T07:38:15.178Z,48.23
2018-02-05T07:40:42.731Z,42.37
2018-02-05T07:43:10.546Z,47.10
2018-02-05T07:45:38.088Z,42.20
2018-02-05T07:48:07.834Z,41.83
2018-02-05T07:50:36.138Z,45.83
2018-02-05T07:53:05.356Z,40.67
2018-02-05T07:55:33.659Z,44.33
2018-02-05T07:58:02.103Z,49.53
2018-02-05T08:00:32.019Z,46.13
2018-02-05T08:02:59.600Z,41.60
2018-02-05T08:05:27.142Z,41.63
2018-02-05T08:07:55.674Z,44.13
2018-02-05T08:10:23.884Z,41.53
2018-02-05T08:12:52.439Z,38.00
2018-02-05T08:15:20.865Z,41.17
2018-02-05T08:17:48.481Z,38.83
2018-02-05T08:20:16.995Z,43.90
2018-02-05T08:22:45.399Z,47.47
2018-02-05T08:25:14.163Z,42.20
2018-02-05T08:27:42.580Z,45.43
2018-02-05T08:30:10.179Z,44.20
2018-02-05T08:32:37.753Z,49.70
2018-02-05T08:35:05.344Z,43.83
2018-02-05T08:37:32.936Z,39.73
2018-02-05T08:40:01.275Z,41.20
2018-02-05T08:42:29.827Z,45.10
2018-02-05T08:44:59.001Z,42.63
2018-02-05T08:47:27.304Z,46.40
2018-02-05T08:49:54.883Z,43.97
2018-02-05T08:52:22.423Z,44.23
2018-02-05T08:54:50.872Z,41.53
2018-02-05T08:57:19.176Z,42.77
2018-02-05T08:59:49.375Z,45.57
2018-02-05T09:02:16.931Z,44.20
2018-02-05T09:04:45.319Z,44.73
2018-02-05T09:07:12.861Z,40.60
2018-02-05T09:09:41.199Z,41.43
2018-02-05T09:12:09.562Z,45.50
2018-02-05T09:14:37.148Z,46.17
2018-02-05T09:17:04.688Z,33.57
2018-02-05T09:19:32.267Z,42.00
2018-02-05T09:21:59.806Z,38.27
2018-02-05T09:24:28.163Z,40.90
2018-02-05T09:26:55.736Z,37.87
2018-02-05T09:29:23.354Z,41.20
2018-02-05T09:31:51.651Z,41.87
2018-02-05T09:34:20.423Z,40.63
2018-02-05T09:36:48.780Z,35.70
2018-02-05T09:39:16.429Z,35.83
2018-02-05T09:41:45.729Z,38.13
2018-02-05T09:44:13.327Z,46.93
2018-02-05T09:46:42.083Z,37.13
2018-02-05T09:49:09.666Z,36.00
2018-02-05T09:51:37.964Z,36.70
2018-02-05T09:54:06.306Z,36.83
2018-02-05T09:56:33.851Z,37.20
2018-02-05T09:59:01.423Z,32.80
2018-02-05T10:01:28.963Z,37.53
2018-02-05T10:03:58.148Z,35.03
2018-02-05T10:06:26.490Z,47.47
2018-02-05T10:08:54.080Z,34.33
2018-02-05T10:11:21.624Z,35.77
2018-02-05T10:13:51.380Z,35.30
2018-02-05T10:16:18.959Z,33.03
2018-02-05T10:18:47.346Z,32.83
2018-02-05T10:21:14.920Z,33.97
2018-02-05T10:23:42.520Z,32.80
2018-02-05T10:26:10.955Z,32.03
2018-02-05T10:28:38.509Z,35.53
2018-02-05T10:31:07.040Z,29.80
2018-02-05T10:33:34.583Z,32.30
2018-02-05T10:36:02.804Z,35.00
2018-02-05T10:38:30.994Z,35.80
2018-02-05T10:40:59.237Z,38.17
2018-02-05T10:43:28.658Z,35.13
2018-02-05T10:45:56.228Z,37.03
2018-02-05T10:48:24.615Z,30.40
2018-02-05T10:50:56.183Z,32.43
2018-02-05T10:53:24.075Z,34.97
2018-02-05T10:55:52.949Z,31.43
2018-02-05T10:58:22.654Z,39.00
2018-02-05T11:00:50.222Z,41.60
2018-02-05T11:03:18.588Z,37.13
2018-02-05T11:05:47.440Z,29.20
2018-02-05T11:08:15.995Z,32.77
2018-02-05T11:10:43.901Z,35.30
2018-02-05T11:13:12.031Z,30.87
2018-02-05T11:15:39.607Z,36.23
2018-02-05T11:18:07.135Z,35.47
2018-02-05T11:20:36.663Z,37.53
2018-02-05T11:23:04.253Z,26.10
2018-02-05T11:25:33.150Z,30.97
2018-02-05T11:28:00.704Z,31.23
2018-02-05T11:30:28.258Z,30.53
2018-02-05T11:32:55.838Z,34.50
2018-02-05T11:35:24.195Z,31.53
2018-02-05T11:37:54.138Z,34.20
2018-02-05T11:40:22.341Z,30.07
2018-02-05T11:42:51.631Z,37.57
2018-02-05T11:45:19.217Z,38.13
2018-02-05T11:47:47.330Z,40.27
2018-02-05T11:50:15.725Z,33.90
2018-02-05T11:52:43.850Z,30.53
2018-02-05T11:55:11.836Z,32.97
2018-02-05T11:57:39.375Z,34.57
2018-02-05T12:00:07.835Z,33.30
2018-02-05T12:02:35.984Z,35.27
2018-02-05T12:05:04.548Z,33.07
2018-02-05T12:07:32.664Z,32.23
2018-02-05T12:10:00.801Z,34.73
2018-02-05T12:12:28.347Z,36.60
2018-02-05T12:14:56.947Z,35.37
2018-02-05T12:17:25.250Z,35.20
2018-02-05T12:19:52.820Z,32.33
2018-02-05T12:22:22.133Z,32.90
2018-02-05T12:24:51.236Z,32.13
2018-02-05T12:27:20.134Z,34.03
2018-02-05T12:29:49.031Z,27.50
2018-02-05T12:32:17.367Z,33.53
2018-02-05T12:34:44.921Z,29.67
2018-02-05T12:37:12.503Z,31.77
2018-02-05T12:39:40.983Z,36.40
2018-02-05T12:42:09.331Z,29.13
2018-02-05T12:44:36.884Z,28.37
2018-02-05T12:47:04.463Z,29.70
2018-02-05T12:49:32.559Z,29.50
2018-02-05T12:52:00.145Z,30.47
2018-02-05T12:54:27.705Z,32.50
2018-02-05T12:56:55.976Z,28.50
2018-02-05T12:59:24.305Z,28.60
2018-02-05T13:01:53.045Z,29.80
2018-02-05T13:04:23.152Z,31.47
2018-02-05T13:06:52.329Z,30.53
2018-02-05T13:09:19.956Z,33.90
2018-02-05T13:11:47.559Z,29.77
2018-02-05T13:14:16.037Z,27.33
2018-02-05T13:16:43.663Z,25.73
2018-02-05T13:19:12.982Z,29.50
2018-02-05T13:21:40.971Z,25.07
2018-02-05T13:24:11.065Z,27.57
2018-02-05T13:26:39.712Z,26.03
2018-02-05T13:29:08.019Z,24.60
2018-02-05T13:31:35.619Z,25.00
2018-02-05T13:34:04.164Z,23.80
2018-02-05T13:36:34.163Z,28.00
2018-02-05T13:39:02.493Z,27.30
2018-02-05T13:41:32.600Z,27.20
2018-02-05T13:44:00.168Z,27.17
2018-02-05T13:46:27.761Z,35.10
2018-02-05T13:48:55.926Z,25.43
2018-02-05T13:51:23.541Z,22.97
2018-02-05T13:53:51.150Z,23.23
2018-02-05T13:56:19.693Z,25.67
2018-02-05T13:58:48.046Z,29.03
2018-02-05T14:01:15.633Z,28.20
2018-02-05T14:03:44.381Z,27.47
2018-02-05T14:06:12.741Z,24.93
2018-02-05T14:08:40.283Z,30.63
2018-02-05T14:11:08.677Z,31.53
2018-02-05T14:13:38.156Z,30.27
2018-02-05T14:16:05.755Z,31.17
2018-02-05T14:18:33.331Z,35.67
2018-02-05T14:21:01.427Z,31.63
2018-02-05T14:23:29.675Z,31.90
2018-02-05T14:25:58.547Z,34.10
2018-02-05T14:28:26.438Z,34.60
2018-02-05T14:30:54.783Z,33.80
2018-02-05T14:33:22.994Z,31.60
2018-02-05T14:35:50.567Z,33.10
2018-02-05T14:38:18.947Z,35.70
2018-02-05T14:40:47.487Z,29.30
2018-02-05T14:43:15.032Z,33.10
2018-02-05T14:45:42.616Z,33.33
2018-02-05T14:48:10.840Z,40.33
2018-02-05T14:50:39.187Z,32.13
2018-02-05T14:53:08.391Z,31.37
2018-02-05T14:55:36.818Z,32.57
2018-02-05T14:58:05.913Z,34.33
2018-02-05T15:00:34.144Z,33.37
2018-02-05T15:03:02.492Z,32.73
2018-02-05T15:05:30.095Z,31.57
2018-02-05T15:07:58.207Z,28.17
2018-02-05T15:10:26.105Z,34.30
2018-02-05T15:12:53.648Z,35.20
2018-02-05T15:15:21.242Z,31.40
2018-02-05T15:17:49.571Z,34.23
2018-02-05T15:20:17.947Z,36.30
2018-02-05T15:22:45.489Z,32.47
2018-02-05T15:25:13.120Z,29.47
2018-02-05T15:27:41.489Z,36.40
2018-02-05T15:30:09.119Z,36.60
2018-02-05T15:32:36.670Z,31.73
2018-02-05T15:35:05.819Z,37.47
2018-02-05T15:37:33.380Z,32.13
2018-02-05T15:40:00.966Z,37.93
2018-02-05T15:42:29.119Z,34.90
2018-02-05T15:44:57.526Z,32.10
2018-02-05T15:47:25.062Z,33.20
2018-02-05T15:49:53.438Z,31.43
2018-02-05T15:52:21.005Z,32.97
2018-02-05T15:54:48.610Z,32.73
2018-02-05T15:57:16.156Z,30.87
2018-02-05T15:59:43.743Z,31.50
2018-02-05T16:02:11.320Z,29.97
2018-02-05T16:04:39.293Z,28.87
2018-02-05T16:07:06.842Z,34.87
2018-02-05T16:09:35.270Z,31.00
2018-02-05T16:12:02.815Z,33.57
2018-02-05T16:14:30.394Z,31.30
2018-02-05T16:16:58.589Z,32.30
2018-02-05T16:19:26.175Z,29.93
2018-02-05T16:21:54.588Z,30.70
2018-02-05T16:24:22.967Z,36.83
2018-02-05T16:26:57.442Z,37.77
2018-02-05T16:29:26.515Z,32.93
2018-02-05T16:31:55.833Z,35.10
2018-02-05T16:34:24.268Z,31.67
2018-02-05T16:36:51.795Z,30.17
2018-02-05T16:39:19.852Z,31.63
2018-02-05T16:41:48.311Z,31.40
2018-02-05T16:44:16.367Z,32.47
2018-02-05T16:46:44.689Z,30.20
2018-02-05T16:49:13.436Z,32.63
2018-02-05T16:51:42.232Z,30.27
2018-02-05T16:54:10.445Z,32.70
2018-02-05T16:56:38.810Z,35.33
2018-02-05T16:59:06.391Z,29.53
2018-02-05T17:01:34.748Z,28.73
2018-02-05T17:04:02.347Z,31.10
2018-02-05T17:06:30.762Z,31.00
2018-02-05T17:08:58.350Z,33.27
2018-02-05T17:11:25.986Z,33.10
2018-02-05T17:13:54.774Z,33.77
2018-02-05T17:16:23.049Z,32.27
2018-02-05T17:18:50.633Z,35.93
2018-02-05T17:21:19.192Z,31.60
2018-02-05T17:23:47.529Z,30.83
2018-02-05T17:26:15.933Z,30.03
2018-02-05T17:28:44.425Z,33.17
2018-02-05T17:31:12.766Z,34.40
2018-02-05T17:33:40.313Z,36.23
2018-02-05T17:36:08.722Z,37.30
2018-02-05T17:38:38.005Z,33.07
2018-02-05T17:41:06.188Z,37.47
2018-02-05T17:43:33.748Z,35.80
2018-02-05T17:46:01.340Z,30.23
2018-02-05T17:48:31.642Z,31.77
2018-02-05T17:50:59.224Z,34.43
2018-02-05T17:53:28.735Z,32.03
2018-02-05T17:55:56.353Z,32.10
2018-02-05T17:58:25.937Z,34.30
2018-02-05T18:00:54.360Z,31.70
2018-02-05T18:03:22.788Z,32.40
2018-02-05T18:05:50.441Z,30.43
2018-02-05T18:08:18.078Z,36.90
2018-02-05T18:10:45.706Z,32.20
2018-02-05T18:13:13.227Z,35.27
2018-02-05T18:15:41.759Z,34.30
2018-02-05T18:18:09.336Z,31.70
2018-02-05T18:20:37.183Z,34.40
2018-02-05T18:23:04.739Z,35.30
2018-02-05T18:25:33.557Z,38.63
2018-02-05T18:28:01.122Z,31.37
2018-02-05T18:30:28.705Z,39.30
2018-02-05T18:32:56.910Z,37.50
2018-02-05T18:35:24.503Z,36.93
2018-02-05T18:37:57.070Z,33.57
2018-02-05T18:40:25.204Z,37.37
2018-02-05T18:42:53.656Z,36.97
2018-02-05T18:45:22.795Z,39.30
2018-02-05T18:47:51.267Z,42.03
2018-02-05T18:50:19.498Z,43.33
2018-02-05T18:52:48.304Z,42.17
2018-02-05T18:55:16.467Z,41.80
2018-02-05T18:57:44.835Z,37.43
2018-02-05T19:00:24.427Z,37.20
2018-02-05T19:02:51.983Z,40.57
2018-02-05T19:05:20.323Z,36.63
2018-02-05T19:07:48.612Z,46.37
2018-02-05T19:10:16.200Z,39.30
2018-02-05T19:12:43.770Z,37.23
2018-02-05T19:15:12.678Z,34.30
2018-02-05T19:17:43.072Z,35.60
2018-02-05T19:20:12.392Z,35.80
2018-02-05T19:22:40.654Z,33.23
2018-02-05T19:25:09.047Z,35.13
2018-02-05T19:27:37.123Z,35.53
2018-02-05T19:30:06.097Z,35.70
2018-02-05T19:32:35.274Z,28.90
2018-02-05T19:35:02.872Z,34.13
2018-02-05T19:37:31.447Z,33.30
2018-02-05T19:40:00.760Z,30.83
2018-02-05T19:42:28.366Z,28.13
2018-02-05T19:44:56.813Z,36.63
2018-02-05T19:47:25.331Z,31.43
2018-02-05T19:49:53.774Z,33.20
2018-02-05T19:52:22.034Z,40.50
2018-02-05T19:54:51.718Z,36.77
2018-02-05T19:57:19.310Z,33.33
2018-02-05T19:59:46.946Z,31.83
2018-02-05T20:02:15.354Z,37.00
2018-02-05T20:04:43.328Z,39.20
2018-02-05T20:07:14.776Z,36.63
2018-02-05T20:09:42.409Z,35.33
2018-02-05T20:12:10.034Z,32.23
2018-02-05T20:14:37.701Z,30.73
2018-02-05T20:17:05.242Z,34.67
2018-02-05T20:19:32.854Z,29.30
2018-02-05T20:22:02.520Z,38.20
2018-02-05T20:24:30.107Z,33.13
2018-02-05T20:26:58.218Z,29.17
2018-02-05T20:29:26.645Z,28.90
2018-02-05T20:31:56.486Z,38.60
2018-02-05T20:34:25.324Z,30.07
2018-02-05T20:36:54.051Z,35.10
2018-02-05T20:39:22.499Z,30.90
2018-02-05T20:41:50.603Z,33.73
2018-02-05T20:44:19.598Z,32.97
2018-02-05T20:46:48.009Z,29.80
2018-02-05T20:49:16.406Z,35.33
2018-02-05T20:51:43.973Z,30.00
2018-02-05T20:54:11.580Z,36.77
2018-02-05T20:56:39.170Z,31.73
2018-02-05T20:59:08.493Z,38.73
2018-02-05T21:01:36.803Z,35.03
2018-02-05T21:04:04.962Z,36.57
2018-02-05T21:06:35.264Z,32.90
2018-02-05T21:09:07.437Z,35.83
2018-02-05T21:11:37.559Z,32.17
2018-02-05T21:14:05.176Z,39.83
2018-02-05T21:16:34.321Z,31.03
2018-02-05T21:19:01.911Z,41.07
2018-02-05T21:21:29.517Z,37.00
2018-02-05T21:23:57.257Z,35.20
2018-02-05T21:26:24.839Z,33.57
2018-02-05T21:28:52.454Z,32.40
2018-02-05T21:31:20.067Z,35.63
2018-02-05T21:33:48.414Z,33.07
2018-02-05T21:36:15.978Z,36.67
2018-02-05T21:38:43.572Z,32.00
2018-02-05T21:41:12.094Z,33.03
2018-02-05T21:43:41.120Z,35.30
2018-02-05T21:46:08.672Z,31.53
2018-02-05T21:48:37.462Z,34.97
2018-02-05T21:51:06.651Z,37.00
2018-02-05T21:53:34.273Z,33.80
2018-02-05T21:56:02.704Z,32.87
2018-02-05T21:58:30.312Z,29.60
2018-02-05T22:00:58.341Z,28.50
2018-02-05T22:03:25.944Z,31.30
2018-02-05T22:05:54.194Z,30.43
2018-02-05T22:08:22.704Z,33.30
2018-02-05T22:10:51.017Z,30.60
2018-02-05T22:13:19.474Z,36.30
2018-02-05T22:15:47.047Z,33.23
2018-02-05T22:18:15.581Z,38.50
2018-02-05T22:20:43.141Z,37.63
2018-02-05T22:23:11.484Z,35.50
2018-02-05T22:25:39.794Z,31.37
2018-02-05T22:28:07.383Z,28.43
2018-02-05T22:30:34.942Z,32.93
2018-02-05T22:33:02.515Z,29.53
2018-02-05T22:35:30.772Z,29.03
2018-02-05T22:38:06.475Z,27.27
2018-02-05T22:40:35.175Z,31.53
2018-02-05T22:43:03.556Z,29.53
2018-02-05T22:45:31.210Z,28.33
2018-02-05T22:48:02.000Z,26.40
2018-02-05T22:50:30.356Z,27.83
2018-02-05T22:53:02.701Z,29.37
2018-02-05T22:55:31.128Z,28.10
2018-02-05T22:57:59.497Z,30.73
2018-02-05T23:00:27.055Z,29.17
2018-02-05T23:02:55.445Z,32.00
2018-02-05T23:05:22.980Z,30.80
2018-02-05T23:07:50.604Z,31.30
2018-02-05T23:10:18.148Z,30.13
2018-02-05T23:12:46.576Z,35.70
2018-02-05T23:15:19.399Z,33.00
2018-02-05T23:17:50.663Z,29.43
2018-02-05T23:20:20.029Z,27.90
2018-02-05T23:22:49.213Z,28.83
2018-02-05T23:25:16.808Z,28.00
2018-02-05T23:27:45.988Z,30.60
2018-02-05T23:30:19.181Z,24.27
2018-02-05T23:32:49.047Z,26.77
2018-02-05T23:35:16.591Z,24.40
2018-02-05T23:37:45.547Z,26.50
2018-02-05T23:40:14.020Z,23.87
2018-02-05T23:42:41.617Z,23.83
2018-02-05T23:45:10.652Z,27.80
2018-02-05T23:47:39.322Z,27.13
2018-02-05T23:50:09.030Z,22.23
2018-02-05T23:52:37.550Z,25.53
2018-02-05T23:55:06.636Z,27.37
2018-02-05T23:57:34.225Z,25.93
